»·PEaware :: N16RD KCRQ-KHMT

N16RD :: KCRQ-KHMT

FLIGHT INFORMATION

Flight Status: Arrived
Operator: Privately registered:
United States
More flights under this callsign
Pilot: Brett B. (12105)
Aircraft: CESSNA 152 AEROBAT
(C152)
More flights by this aircraft type
Origin: KCRQ McClellan-Palomar
United States
Destination: KHMT Hemet-Ryan
United States
More flights between these airports :: More routes between these airports
Route: OCN V23 DANAH V363 POXKU V8 PDZ V186 WESIN
File this flight plan on PilotEdge
Remarks:
Altitude:
(Current/Filed)
3,500ft
Speed:
(Current/Filed)
115kts
Departed: 28-Oct-17 09:38 PM
Arrived: 28-Oct-17 11:08 PM
Distance/Time
Traveled:
39nm/1:30
Distance/Time
To Go:
Arrived

Flight Plot

Page will automatically refresh every two minutes.

Flight plan parsing failed; only flown route is shown


Map Options




Map Legend


Flown Route
Filed Route
Departure Airport
Arrival Airport
Navaid (VOR, NDB)
Fix

Horizontal Profiles

Position Reports

Time Latitude Longitude Heading Altitude Ground
Speed
28-Oct-17 20:56 34.900011 -120.450061 93 264ft 0kts
28-Oct-17 20:57 34.900011 -120.450061 93 264ft 0kts
28-Oct-17 20:58 34.900011 -120.450061 93 264ft 0kts
28-Oct-17 20:59 34.900011 -120.450061 93 264ft 0kts
28-Oct-17 21:00 34.900011 -120.450061 93 264ft 0kts
28-Oct-17 21:01 34.900011 -120.450061 93 264ft 0kts
28-Oct-17 21:02 34.900011 -120.450061 93 264ft 0kts
28-Oct-17 21:03 34.900011 -120.450061 93 264ft 0kts
28-Oct-17 21:04 33.126236 -117.281851 79 303ft 0kts
28-Oct-17 21:05 33.126236 -117.281851 79 303ft 0kts
28-Oct-17 21:06 33.126236 -117.281851 79 303ft 0kts
28-Oct-17 21:07 33.126236 -117.281851 79 303ft 0kts
28-Oct-17 21:08 33.126236 -117.281851 79 303ft 0kts
28-Oct-17 21:09 33.126236 -117.281851 79 303ft 0kts
28-Oct-17 21:10 33.126236 -117.281851 79 303ft 0kts
28-Oct-17 21:11 33.126236 -117.281851 79 303ft 0kts
28-Oct-17 21:12 33.126236 -117.281851 79 303ft 0kts
28-Oct-17 21:13 33.126236 -117.281851 79 303ft 0kts
28-Oct-17 21:14 33.126236 -117.281851 79 303ft 0kts
28-Oct-17 21:15 33.126236 -117.281851 79 303ft 0kts
28-Oct-17 21:16 33.126236 -117.281851 79 303ft 0kts
28-Oct-17 21:17 33.126236 -117.281851 79 303ft 0kts
28-Oct-17 21:18 33.126236 -117.281851 79 303ft 0kts
28-Oct-17 21:19 33.126236 -117.281851 79 303ft 0kts
28-Oct-17 21:20 33.126236 -117.281851 79 303ft 0kts
28-Oct-17 21:21 33.126236 -117.281851 79 303ft 0kts
28-Oct-17 21:22 33.126236 -117.281851 79 303ft 0kts
28-Oct-17 21:23 33.126236 -117.281851 79 303ft 0kts
28-Oct-17 21:24 33.126236 -117.281851 79 303ft 0kts
28-Oct-17 21:25 33.126236 -117.281851 79 303ft 0kts
28-Oct-17 21:26 33.126236 -117.281851 79 303ft 0kts
28-Oct-17 21:27 33.126236 -117.281851 79 303ft 0kts
28-Oct-17 21:28 33.126236 -117.281851 79 303ft 0kts
28-Oct-17 21:29 33.126236 -117.281851 79 303ft 0kts
28-Oct-17 21:30 33.126236 -117.281851 79 303ft 0kts
28-Oct-17 21:31 33.126236 -117.281851 79 303ft 0kts
28-Oct-17 21:32 33.126236 -117.281851 79 303ft 0kts
28-Oct-17 21:33 33.126236 -117.281851 79 303ft 0kts
28-Oct-17 21:34 33.126236 -117.281851 79 303ft 0kts
28-Oct-17 21:35 33.126236 -117.281851 79 303ft 0kts
28-Oct-17 21:36 33.126582 -117.281978 0 303ft 11kts
28-Oct-17 21:37 33.128057 -117.276499 77 303ft 22kts
28-Oct-17 21:38 33.128698 -117.272824 32 303ft 0kts
28-Oct-17 21:39 33.128698 -117.272823 32 303ft 0kts
28-Oct-17 21:40 33.128698 -117.272823 32 303ft 0kts
28-Oct-17 21:41 33.128699 -117.272823 32 303ft 0kts
28-Oct-17 21:42 33.129389 -117.272942 264 303ft 0kts
28-Oct-17 21:43 33.127863 -117.286633 267 463ft 70kts
28-Oct-17 21:44 33.125781 -117.310555 257 806ft 74kts
28-Oct-17 21:45 33.122822 -117.334275 272 1195ft 71kts
28-Oct-17 21:46 33.121492 -117.357953 262 1596ft 72kts
28-Oct-17 21:47 33.117007 -117.380827 265 2005ft 70kts
28-Oct-17 21:48 33.118511 -117.402732 326 2376ft 65kts
28-Oct-17 21:49 33.135915 -117.406950 0 2710ft 63kts
28-Oct-17 21:50 33.153409 -117.409443 356 3033ft 62kts
28-Oct-17 21:51 33.170606 -117.411229 358 3321ft 62kts
28-Oct-17 21:52 33.187952 -117.413838 357 3574ft 62kts
28-Oct-17 21:53 33.205396 -117.415668 0 3804ft 62kts
28-Oct-17 21:54 33.222847 -117.418091 357 4014ft 63kts
28-Oct-17 21:55 33.237790 -117.421261 342 4182ft 67kts
28-Oct-17 21:56 33.250477 -117.445054 325 4437ft 70kts
28-Oct-17 21:57 33.266746 -117.457246 325 4681ft 70kts
28-Oct-17 21:58 33.280268 -117.468020 337 4876ft 70kts
28-Oct-17 21:59 33.295443 -117.483308 320 5096ft 73kts
28-Oct-17 22:00 33.313359 -117.502271 316 5335ft 75kts
28-Oct-17 22:01 33.328595 -117.518987 326 5534ft 74kts
28-Oct-17 22:02 33.341813 -117.532231 309 5696ft 75kts
28-Oct-17 22:03 33.356489 -117.550173 317 5885ft 74kts
28-Oct-17 22:04 33.372574 -117.566861 323 6018ft 80kts
28-Oct-17 22:05 33.390507 -117.585117 309 5998ft 87kts
28-Oct-17 22:06 33.408049 -117.604017 328 6008ft 80kts
28-Oct-17 22:07 33.424551 -117.622368 310 5922ft 84kts
28-Oct-17 22:08 33.439127 -117.642497 310 5968ft 78kts
28-Oct-17 22:09 33.450816 -117.665365 309 5944ft 81kts
28-Oct-17 22:10 33.465932 -117.685443 312 5883ft 81kts
28-Oct-17 22:11 33.478252 -117.708265 324 5819ft 78kts
28-Oct-17 22:12 33.494574 -117.728264 316 5566ft 87kts
28-Oct-17 22:13 33.511929 -117.750151 319 5121ft 91kts
28-Oct-17 22:14 33.531197 -117.770926 325 4497ft 95kts
28-Oct-17 22:15 33.550828 -117.791934 320 3867ft 94kts
28-Oct-17 22:16 33.569468 -117.813523 319 3285ft 92kts
28-Oct-17 22:17 33.588520 -117.835715 318 2774ft 97kts
28-Oct-17 22:18 33.606328 -117.855404 318 2538ft 81kts
28-Oct-17 22:19 33.623135 -117.873274 322 2401ft 81kts
28-Oct-17 22:20 33.640931 -117.889146 321 2349ft 79kts
28-Oct-17 22:21 33.658500 -117.907046 313 2295ft 82kts
28-Oct-17 22:22 33.674568 -117.925692 311 2294ft 79kts
28-Oct-17 22:23 33.689438 -117.945386 314 2284ft 79kts
28-Oct-17 22:24 33.705467 -117.962725 313 2274ft 80kts
28-Oct-17 22:25 33.722571 -117.980369 319 2254ft 82kts
28-Oct-17 22:26 33.741615 -117.997411 316 2219ft 87kts
28-Oct-17 22:27 33.762147 -118.013582 337 2203ft 89kts
28-Oct-17 22:28 33.784140 -118.025328 342 2312ft 84kts
28-Oct-17 22:29 33.806116 -118.033949 353 2387ft 81kts
28-Oct-17 22:30 33.828342 -118.036624 4 2446ft 79kts
28-Oct-17 22:31 33.850426 -118.036394 359 2495ft 79kts
28-Oct-17 22:32 33.856000 -118.017370 98 2437ft 81kts
28-Oct-17 22:33 33.846942 -117.992412 115 2474ft 82kts
28-Oct-17 22:34 33.837721 -117.967371 102 2525ft 80kts
28-Oct-17 22:35 33.834894 -117.941051 86 2569ft 78kts
28-Oct-17 22:36 33.828679 -117.915628 111 2602ft 80kts
28-Oct-17 22:37 33.819967 -117.891139 105 2637ft 79kts
28-Oct-17 22:38 33.815207 -117.867830 94 2933ft 70kts
28-Oct-17 22:39 33.810372 -117.845438 98 3204ft 68kts
28-Oct-17 22:40 33.805392 -117.823259 104 3446ft 69kts
28-Oct-17 22:41 33.800544 -117.801001 94 3662ft 68kts
28-Oct-17 22:42 33.796267 -117.778785 100 3876ft 68kts
28-Oct-17 22:43 33.792635 -117.756567 93 4063ft 67kts
28-Oct-17 22:44 33.790818 -117.734100 87 4234ft 67kts
28-Oct-17 22:45 33.789837 -117.711562 92 4387ft 67kts
28-Oct-17 22:46 33.786648 -117.689205 93 4525ft 68kts
28-Oct-17 22:47 33.777765 -117.669941 121 4620ft 71kts
28-Oct-17 22:48 33.769338 -117.648287 110 4699ft 70kts
28-Oct-17 22:49 33.769891 -117.626038 72 4783ft 68kts
28-Oct-17 22:50 33.768797 -117.602927 85 4875ft 69kts
28-Oct-17 22:51 33.770099 -117.579988 93 4970ft 70kts
28-Oct-17 22:52 33.767751 -117.556153 87 4945ft 77kts
28-Oct-17 22:53 33.767547 -117.530722 89 4880ft 75kts
28-Oct-17 22:54 33.766939 -117.505427 93 4809ft 76kts
28-Oct-17 22:55 33.759978 -117.481157 106 4745ft 77kts
28-Oct-17 22:56 33.755968 -117.456211 87 4689ft 75kts
28-Oct-17 22:57 33.756773 -117.431111 80 4636ft 75kts
28-Oct-17 22:58 33.763951 -117.407504 54 4573ft 76kts
28-Oct-17 22:59 33.759727 -117.383502 115 4485ft 81kts
28-Oct-17 23:00 33.751108 -117.356380 105 4149ft 88kts
28-Oct-17 23:01 33.743374 -117.328422 103 3858ft 87kts
28-Oct-17 23:02 33.737269 -117.300236 99 3581ft 87kts
28-Oct-17 23:03 33.733232 -117.271522 94 3336ft 87kts
28-Oct-17 23:04 33.731389 -117.242516 89 3111ft 86kts
28-Oct-17 23:05 33.731912 -117.214104 87 2921ft 84kts
28-Oct-17 23:06 33.731219 -117.185852 94 2732ft 83kts
28-Oct-17 23:07 33.730732 -117.160959 77 2918ft 75kts
28-Oct-17 23:08 33.735849 -117.136823 87 3066ft 77kts
28-Oct-17 23:09 33.733504 -117.109292 98 2976ft 82kts
28-Oct-17 23:10 33.723413 -117.083899 114 2707ft 87kts
28-Oct-17 23:11 33.719575 -117.054110 66 2102ft 98kts
28-Oct-17 23:12 33.731299 -117.027785 62 1516ft 67kts
28-Oct-17 23:13 33.733732 -117.020754 149 1515ft 0kts
28-Oct-17 23:14 33.733732 -117.020754 149 1515ft 0kts
28-Oct-17 23:15 33.733732 -117.020754 149 1515ft 0kts

Navigation Log

Ident Type
Flight plan parsing failed, navigation log unavailable